メインページ
METAR-TAF:

METAR-TAF

空港 :

ウェーク島, アメリカ合衆国

緯度: 19-17N, 経度: 166-39E, 海抜: 4m

METAR: 見つかりません

時間: 08:47 (20:47 UTC)

予報

当レポートは6時間47分前の14:00(UTC)に作成
予報は15日の 14時(UTC)から 16日の 20時(UTC)まで有効
の風 10kt
視程10km以上
高度2000ftの雲はほとんどない
15日の 18時(UTC)から 15日の 24時(UTC)まで一時的に
視程: 1522m
高度1000ftの千切れ雲あり
弱いにわか雨

TAF: PWAK 151400Z 1514/1620 09010KT 9999 FEW020 QNH2991INS TEMPO 1518/1524 8000 -SHRA BKN010 TX31/1604Z TN23/1515Z LIMITED METWATCH 1514 TIL 1522

4,000以上の空港の気象観測と天気予報(METAR報とTAF報)

利用可能な観測所は地図上に黄色い丸と赤い丸で示す。

丸の上にカーソルを重ねると観測所名を参照できる。

次にクリックすると気象観測と天気予報を参照できる。

マップの切り替え:黒色「×」印の緑ボタンをクリックして拡大、「-」印の緑ボタンをクリックして縮小、緑色の三角印をクリックして隣りの地図に切り替え


METAR-TAF: